STW321 LTAI-URKK
Flight info
| Callsign | STW321 |
|---|---|
| Flight time | 1h 39m |
| Altitude | 39000 |
| Route | HISAR UW77 BAG UT61 SIN UW96 ODIRA/K0841F390 G487 KEPOL G901 AG B950 SIBAN |
| Aircraft | B38M/M-SDE1FGHILORVWXY/HB1 |
Departure
| Time | 2026-05-08 07:57 |
|---|---|
| Airport | Antalya International Airport (LTAI) |
Arrival
| Time | 2026-05-08 09:37 |
|---|---|
| Airport | Krasnodar Pashkovsky International Airport (URKK) |
| Time | Latitude | Longitude | Altitude | Speed | Heading |
|---|---|---|---|---|---|
| 2026-05-08 07:33 | 36.89708 | 30.80496 | 205 ft | 0 kts | 276° |
| 2026-05-08 07:49 | 36.89708 | 30.80498 | 194 ft | 2 kts | 276° |
| 2026-05-08 07:50 | 36.89706 | 30.80524 | 210 ft | 3 kts | 275° |
| 2026-05-08 07:50 | 36.89710 | 30.80553 | 204 ft | 4 kts | 230° |
| 2026-05-08 07:50 | 36.89731 | 30.80567 | 209 ft | 3 kts | 187° |
| 2026-05-08 07:50 | 36.89734 | 30.80568 | 209 ft | 1 kts | 186° |
| 2026-05-08 07:52 | 36.89727 | 30.80567 | 209 ft | 3 kts | 186° |
| 2026-05-08 07:53 | 36.89688 | 30.80562 | 207 ft | 9 kts | 186° |
| 2026-05-08 07:53 | 36.89607 | 30.80553 | 198 ft | 14 kts | 179° |
| 2026-05-08 07:53 | 36.89577 | 30.80572 | 197 ft | 3 kts | 106° |
| 2026-05-08 07:53 | 36.89569 | 30.80611 | 194 ft | 7 kts | 105° |
| 2026-05-08 07:54 | 36.89551 | 30.80661 | 196 ft | 11 kts | 127° |
| 2026-05-08 07:54 | 36.89452 | 30.80677 | 196 ft | 13 kts | 186° |
| 2026-05-08 07:54 | 36.89384 | 30.80668 | 194 ft | 16 kts | 186° |
| 2026-05-08 07:54 | 36.89262 | 30.80650 | 196 ft | 21 kts | 188° |
| 2026-05-08 07:55 | 36.89105 | 30.80626 | 194 ft | 25 kts | 185° |
| 2026-05-08 07:55 | 36.88920 | 30.80603 | 197 ft | 29 kts | 186° |
| 2026-05-08 07:55 | 36.88706 | 30.80574 | 195 ft | 33 kts | 186° |
| 2026-05-08 07:55 | 36.88567 | 30.80598 | 195 ft | 6 kts | 121° |
| 2026-05-08 07:56 | 36.88567 | 30.80624 | 198 ft | 3 kts | 67° |
| 2026-05-08 07:56 | 36.88582 | 30.80648 | 200 ft | 6 kts | 44° |
| 2026-05-08 07:56 | 36.88649 | 30.80715 | 201 ft | 19 kts | 37° |
| 2026-05-08 07:56 | 36.88806 | 30.80811 | 194 ft | 31 kts | 16° |
| 2026-05-08 07:57 | 36.89032 | 30.80853 | 199 ft | 35 kts | 6° |
| 2026-05-08 07:57 | 36.89493 | 30.80917 | 192 ft | 112 kts | 6° |
| 2026-05-08 07:57 | 36.90519 | 30.81080 | 376 ft | 174 kts | 8° |
| 2026-05-08 07:57 | 36.91888 | 30.81295 | 895 ft | 225 kts | 7° |
| 2026-05-08 07:58 | 36.93593 | 30.81810 | 1554 ft | 267 kts | 24° |
| 2026-05-08 07:58 | 36.95169 | 30.82806 | 3460 ft | 247 kts | 25° |
| 2026-05-08 07:58 | 36.96691 | 30.83671 | 5192 ft | 233 kts | 23° |
| 2026-05-08 07:58 | 36.98142 | 30.84449 | 6752 ft | 222 kts | 22° |
| 2026-05-08 07:59 | 36.99598 | 30.85200 | 7814 ft | 234 kts | 21° |
| 2026-05-08 07:59 | 37.01169 | 30.85991 | 8606 ft | 253 kts | 21° |
| 2026-05-08 07:59 | 37.02871 | 30.86836 | 9398 ft | 272 kts | 20° |
| 2026-05-08 07:59 | 37.04678 | 30.87725 | 10320 ft | 282 kts | 20° |
| 2026-05-08 08:00 | 37.06581 | 30.88584 | 11048 ft | 300 kts | 11° |
| 2026-05-08 08:00 | 37.08704 | 30.88618 | 11719 ft | 314 kts | 349° |
| 2026-05-08 08:00 | 37.10890 | 30.88095 | 12471 ft | 326 kts | 348° |
| 2026-05-08 08:00 | 37.13134 | 30.87556 | 13483 ft | 329 kts | 348° |
| 2026-05-08 08:01 | 37.15385 | 30.87002 | 14416 ft | 333 kts | 347° |
| 2026-05-08 08:01 | 37.17674 | 30.86433 | 15256 ft | 337 kts | 347° |
| 2026-05-08 08:01 | 37.19959 | 30.85861 | 16067 ft | 342 kts | 347° |
| 2026-05-08 08:01 | 37.22303 | 30.85274 | 16894 ft | 345 kts | 347° |
| 2026-05-08 08:02 | 37.24677 | 30.84678 | 17679 ft | 350 kts | 347° |
| 2026-05-08 08:02 | 37.27074 | 30.84079 | 18507 ft | 353 kts | 347° |
| 2026-05-08 08:02 | 37.29553 | 30.83978 | 19160 ft | 362 kts | 5° |
| 2026-05-08 08:02 | 37.31979 | 30.84943 | 19862 ft | 373 kts | 24° |
| 2026-05-08 08:03 | 37.34090 | 30.86908 | 20550 ft | 385 kts | 42° |
| 2026-05-08 08:03 | 37.35645 | 30.89695 | 21212 ft | 398 kts | 61° |
| 2026-05-08 08:03 | 37.36698 | 30.92938 | 21861 ft | 403 kts | 63° |
| 2026-05-08 08:03 | 37.37802 | 30.96202 | 22464 ft | 407 kts | 60° |
| 2026-05-08 08:04 | 37.39359 | 30.99129 | 23049 ft | 401 kts | 41° |
| 2026-05-08 08:04 | 37.41515 | 31.01303 | 23622 ft | 396 kts | 24° |
| 2026-05-08 08:04 | 37.44045 | 31.02578 | 24104 ft | 390 kts | 8° |
| 2026-05-08 08:04 | 37.46707 | 31.03210 | 24648 ft | 390 kts | 4° |
| 2026-05-08 08:05 | 37.49394 | 31.03723 | 25144 ft | 391 kts | 2° |
| 2026-05-08 08:05 | 37.52098 | 31.04167 | 25684 ft | 392 kts | 2° |
| 2026-05-08 08:05 | 37.54817 | 31.04581 | 26210 ft | 394 kts | 1° |
| 2026-05-08 08:05 | 37.57540 | 31.05161 | 26729 ft | 401 kts | 7° |
| 2026-05-08 08:06 | 37.60268 | 31.05927 | 27259 ft | 402 kts | 6° |
| 2026-05-08 08:06 | 37.63010 | 31.06663 | 27766 ft | 404 kts | 6° |
| 2026-05-08 08:06 | 37.65777 | 31.07388 | 28264 ft | 407 kts | 5° |
| 2026-05-08 08:06 | 37.68554 | 31.08109 | 28754 ft | 409 kts | 5° |
| 2026-05-08 08:07 | 37.71355 | 31.08833 | 29202 ft | 412 kts | 5° |
| 2026-05-08 08:07 | 37.74171 | 31.09566 | 29620 ft | 415 kts | 6° |
| 2026-05-08 08:07 | 37.76920 | 31.10833 | 30156 ft | 429 kts | 22° |
| 2026-05-08 08:07 | 37.79351 | 31.13126 | 30625 ft | 445 kts | 37° |
| 2026-05-08 08:08 | 37.81544 | 31.15895 | 31047 ft | 447 kts | 37° |
| 2026-05-08 08:08 | 37.83770 | 31.18673 | 31360 ft | 451 kts | 37° |
| 2026-05-08 08:08 | 37.85995 | 31.21480 | 31759 ft | 453 kts | 37° |
| 2026-05-08 08:08 | 37.88223 | 31.24307 | 32143 ft | 455 kts | 37° |
| 2026-05-08 08:09 | 37.90457 | 31.27147 | 32535 ft | 456 kts | 36° |
| 2026-05-08 08:09 | 37.92693 | 31.29994 | 32939 ft | 457 kts | 36° |
| 2026-05-08 08:09 | 37.94940 | 31.32856 | 33308 ft | 458 kts | 36° |
| 2026-05-08 08:09 | 37.97182 | 31.35715 | 33853 ft | 456 kts | 36° |
| 2026-05-08 08:10 | 37.99411 | 31.38561 | 34404 ft | 454 kts | 35° |
| 2026-05-08 08:10 | 38.01626 | 31.41393 | 34842 ft | 452 kts | 36° |
| 2026-05-08 08:10 | 38.03831 | 31.44213 | 35273 ft | 451 kts | 36° |
| 2026-05-08 08:10 | 38.06035 | 31.47034 | 35668 ft | 450 kts | 36° |
| 2026-05-08 08:11 | 38.08206 | 31.49815 | 36055 ft | 449 kts | 36° |
| 2026-05-08 08:11 | 38.10442 | 31.52638 | 36485 ft | 444 kts | 32° |
| 2026-05-08 08:11 | 38.12918 | 31.54784 | 36861 ft | 422 kts | 17° |
| 2026-05-08 08:11 | 38.15492 | 31.56466 | 37203 ft | 422 kts | 18° |
| 2026-05-08 08:12 | 38.18139 | 31.58194 | 37513 ft | 422 kts | 18° |
| 2026-05-08 08:12 | 38.20726 | 31.59855 | 37834 ft | 422 kts | 18° |
| 2026-05-08 08:12 | 38.23373 | 31.61537 | 38154 ft | 421 kts | 18° |
| 2026-05-08 08:12 | 38.25963 | 31.63175 | 38463 ft | 421 kts | 17° |
| 2026-05-08 08:13 | 38.28583 | 31.64829 | 38765 ft | 420 kts | 17° |
| 2026-05-08 08:13 | 38.31200 | 31.66482 | 39020 ft | 420 kts | 18° |
| 2026-05-08 08:13 | 38.33820 | 31.68138 | 39194 ft | 421 kts | 18° |
| 2026-05-08 08:14 | 38.39077 | 31.71464 | 39243 ft | 421 kts | 18° |
| 2026-05-08 08:14 | 38.44318 | 31.74785 | 39241 ft | 420 kts | 18° |
| 2026-05-08 08:15 | 38.49559 | 31.78112 | 39239 ft | 422 kts | 18° |
| 2026-05-08 08:15 | 38.54812 | 31.81452 | 39229 ft | 423 kts | 18° |
| 2026-05-08 08:16 | 38.60082 | 31.84808 | 39234 ft | 424 kts | 18° |
| 2026-05-08 08:16 | 38.65366 | 31.88178 | 39238 ft | 425 kts | 18° |
| 2026-05-08 08:17 | 38.70653 | 31.91557 | 39228 ft | 425 kts | 18° |
| 2026-05-08 08:17 | 38.75951 | 31.94947 | 39232 ft | 426 kts | 18° |
| 2026-05-08 08:18 | 38.81255 | 31.98348 | 39234 ft | 427 kts | 18° |
| 2026-05-08 08:18 | 38.86569 | 32.01760 | 39224 ft | 427 kts | 18° |
| 2026-05-08 08:19 | 38.91881 | 32.05178 | 39221 ft | 427 kts | 18° |
| 2026-05-08 08:19 | 38.97204 | 32.08607 | 39236 ft | 430 kts | 19° |
| 2026-05-08 08:20 | 39.02508 | 32.12030 | 39230 ft | 431 kts | 19° |
| 2026-05-08 08:20 | 39.07867 | 32.15495 | 39227 ft | 431 kts | 19° |
| 2026-05-08 08:21 | 39.13215 | 32.18959 | 39228 ft | 432 kts | 19° |
| 2026-05-08 08:21 | 39.18586 | 32.22443 | 39228 ft | 432 kts | 19° |
| 2026-05-08 08:22 | 39.23958 | 32.25934 | 39221 ft | 432 kts | 19° |
| 2026-05-08 08:22 | 39.29331 | 32.29431 | 39233 ft | 433 kts | 19° |
| 2026-05-08 08:23 | 39.34705 | 32.32934 | 39224 ft | 433 kts | 19° |
| 2026-05-08 08:23 | 39.40085 | 32.36459 | 39218 ft | 434 kts | 19° |
| 2026-05-08 08:24 | 39.45477 | 32.40014 | 39228 ft | 436 kts | 20° |
| 2026-05-08 08:24 | 39.50886 | 32.43583 | 39222 ft | 437 kts | 20° |
| 2026-05-08 08:25 | 39.56298 | 32.47161 | 39222 ft | 436 kts | 20° |
| 2026-05-08 08:25 | 39.61707 | 32.50743 | 39230 ft | 438 kts | 20° |
| 2026-05-08 08:26 | 39.67131 | 32.54342 | 39213 ft | 437 kts | 20° |
| 2026-05-08 08:26 | 39.72551 | 32.57944 | 39222 ft | 438 kts | 20° |
| 2026-05-08 08:27 | 39.77983 | 32.61560 | 39221 ft | 440 kts | 20° |
| 2026-05-08 08:27 | 39.83432 | 32.65194 | 39217 ft | 440 kts | 21° |
| 2026-05-08 08:28 | 39.88880 | 32.68834 | 39216 ft | 440 kts | 21° |
| 2026-05-08 08:28 | 39.94325 | 32.72479 | 39216 ft | 440 kts | 21° |
| 2026-05-08 08:29 | 39.99770 | 32.76129 | 39217 ft | 440 kts | 21° |
| 2026-05-08 08:29 | 40.05211 | 32.79784 | 39228 ft | 440 kts | 21° |
| 2026-05-08 08:29 | 40.07813 | 32.81957 | 39207 ft | 450 kts | 35° |
| 2026-05-08 08:30 | 40.10181 | 32.84635 | 39245 ft | 452 kts | 33° |
| 2026-05-08 08:30 | 40.17394 | 32.92605 | 39235 ft | 453 kts | 34° |
| 2026-05-08 08:31 | 40.22150 | 32.97933 | 39242 ft | 454 kts | 35° |
| 2026-05-08 08:31 | 40.26944 | 33.03316 | 39216 ft | 454 kts | 35° |
| 2026-05-08 08:32 | 40.31736 | 33.08708 | 39211 ft | 454 kts | 35° |
| 2026-05-08 08:32 | 40.36528 | 33.14110 | 39214 ft | 454 kts | 35° |
| 2026-05-08 08:33 | 40.41320 | 33.19523 | 39204 ft | 455 kts | 36° |
| 2026-05-08 08:33 | 40.46111 | 33.24944 | 39201 ft | 455 kts | 36° |
| 2026-05-08 08:34 | 40.50900 | 33.30374 | 39194 ft | 454 kts | 36° |
| 2026-05-08 08:34 | 40.55682 | 33.35808 | 39200 ft | 454 kts | 36° |
| 2026-05-08 08:35 | 40.60454 | 33.41240 | 39191 ft | 454 kts | 36° |
| 2026-05-08 08:35 | 40.65230 | 33.46688 | 39189 ft | 454 kts | 36° |
| 2026-05-08 08:36 | 40.70002 | 33.52141 | 39196 ft | 454 kts | 36° |
| 2026-05-08 08:36 | 40.74770 | 33.57601 | 39190 ft | 454 kts | 36° |
| 2026-05-08 08:37 | 40.79531 | 33.63063 | 39195 ft | 453 kts | 37° |
| 2026-05-08 08:37 | 40.84287 | 33.68531 | 39193 ft | 453 kts | 37° |
| 2026-05-08 08:38 | 40.89040 | 33.74006 | 39192 ft | 453 kts | 37° |
| 2026-05-08 08:38 | 40.93784 | 33.79482 | 39187 ft | 452 kts | 37° |
| 2026-05-08 08:39 | 40.98509 | 33.84949 | 39190 ft | 452 kts | 37° |
| 2026-05-08 08:39 | 41.03251 | 33.90442 | 39196 ft | 453 kts | 37° |
| 2026-05-08 08:40 | 41.07184 | 33.95007 | 39201 ft | 452 kts | 37° |
| 2026-05-08 08:40 | 41.11910 | 34.00504 | 39205 ft | 452 kts | 37° |
| 2026-05-08 08:41 | 41.16639 | 34.06015 | 39193 ft | 452 kts | 37° |
| 2026-05-08 08:41 | 41.21356 | 34.11522 | 39198 ft | 451 kts | 37° |
| 2026-05-08 08:42 | 41.26060 | 34.17023 | 39196 ft | 450 kts | 37° |
| 2026-05-08 08:42 | 41.30759 | 34.22529 | 39172 ft | 450 kts | 37° |
| 2026-05-08 08:43 | 41.35446 | 34.28056 | 39173 ft | 451 kts | 38° |
| 2026-05-08 08:43 | 41.40115 | 34.33571 | 39161 ft | 452 kts | 38° |
| 2026-05-08 08:44 | 41.44843 | 34.39166 | 39156 ft | 451 kts | 38° |
| 2026-05-08 08:44 | 41.49531 | 34.44726 | 39167 ft | 450 kts | 38° |
| 2026-05-08 08:45 | 41.54165 | 34.50231 | 39182 ft | 449 kts | 38° |
| 2026-05-08 08:45 | 41.58870 | 34.55803 | 39162 ft | 449 kts | 38° |
| 2026-05-08 08:46 | 41.63517 | 34.61298 | 39166 ft | 448 kts | 38° |
| 2026-05-08 08:46 | 41.68175 | 34.66819 | 39157 ft | 447 kts | 38° |
| 2026-05-08 08:47 | 41.72824 | 34.72340 | 39159 ft | 448 kts | 38° |
| 2026-05-08 08:47 | 41.77483 | 34.77886 | 39180 ft | 448 kts | 38° |
| 2026-05-08 08:48 | 41.82120 | 34.83414 | 39180 ft | 445 kts | 38° |
| 2026-05-08 08:48 | 41.86754 | 34.88951 | 39195 ft | 446 kts | 38° |
| 2026-05-08 08:49 | 41.91385 | 34.94495 | 39210 ft | 446 kts | 38° |
| 2026-05-08 08:49 | 41.96009 | 35.00043 | 39210 ft | 446 kts | 38° |
| 2026-05-08 08:50 | 42.00625 | 35.05605 | 39213 ft | 446 kts | 40° |
| 2026-05-08 08:50 | 42.02593 | 35.08848 | 39183 ft | 452 kts | 56° |
| 2026-05-08 08:50 | 42.04085 | 35.12578 | 39218 ft | 454 kts | 58° |
| 2026-05-08 08:51 | 42.07055 | 35.20092 | 39214 ft | 456 kts | 59° |
| 2026-05-08 08:51 | 42.09963 | 35.27675 | 39201 ft | 456 kts | 59° |
| 2026-05-08 08:52 | 42.12851 | 35.35270 | 39195 ft | 456 kts | 59° |
| 2026-05-08 08:52 | 42.15743 | 35.42877 | 39211 ft | 456 kts | 59° |
| 2026-05-08 08:53 | 42.18643 | 35.50502 | 39192 ft | 457 kts | 59° |
| 2026-05-08 08:53 | 42.21539 | 35.58135 | 39190 ft | 457 kts | 59° |
| 2026-05-08 08:54 | 42.24433 | 35.65782 | 39195 ft | 457 kts | 59° |
| 2026-05-08 08:54 | 42.27319 | 35.73434 | 39203 ft | 458 kts | 60° |
| 2026-05-08 08:55 | 42.30204 | 35.81098 | 39194 ft | 458 kts | 60° |
| 2026-05-08 08:55 | 42.33082 | 35.88767 | 39197 ft | 458 kts | 60° |
| 2026-05-08 08:56 | 42.35939 | 35.96398 | 39204 ft | 458 kts | 60° |
| 2026-05-08 08:56 | 42.38811 | 36.04092 | 39210 ft | 458 kts | 60° |
| 2026-05-08 08:57 | 42.41676 | 36.11788 | 39212 ft | 458 kts | 60° |
| 2026-05-08 08:57 | 42.44536 | 36.19492 | 39205 ft | 458 kts | 60° |
| 2026-05-08 08:58 | 42.47391 | 36.27200 | 39200 ft | 458 kts | 60° |
| 2026-05-08 08:58 | 42.50241 | 36.34918 | 39215 ft | 458 kts | 61° |
| 2026-05-08 08:59 | 42.53072 | 36.42605 | 39212 ft | 458 kts | 61° |
| 2026-05-08 08:59 | 42.55917 | 36.50353 | 39217 ft | 458 kts | 61° |
| 2026-05-08 09:00 | 42.58755 | 36.58101 | 39217 ft | 458 kts | 61° |
| 2026-05-08 09:00 | 42.61588 | 36.65858 | 39225 ft | 458 kts | 61° |
| 2026-05-08 09:01 | 42.64396 | 36.73566 | 39220 ft | 458 kts | 61° |
| 2026-05-08 09:01 | 42.67216 | 36.81325 | 39215 ft | 458 kts | 61° |
| 2026-05-08 09:02 | 42.70031 | 36.89090 | 39229 ft | 458 kts | 61° |
| 2026-05-08 09:02 | 42.72528 | 36.97069 | 39235 ft | 459 kts | 65° |
| 2026-05-08 09:03 | 42.74986 | 37.05089 | 39221 ft | 459 kts | 65° |
| 2026-05-08 09:03 | 42.77450 | 37.13102 | 39222 ft | 459 kts | 65° |
| 2026-05-08 09:04 | 42.79912 | 37.21125 | 39225 ft | 459 kts | 65° |
| 2026-05-08 09:04 | 42.82363 | 37.29142 | 39224 ft | 458 kts | 65° |
| 2026-05-08 09:05 | 42.84806 | 37.37154 | 39226 ft | 458 kts | 65° |
| 2026-05-08 09:05 | 42.87245 | 37.45179 | 39225 ft | 458 kts | 65° |
| 2026-05-08 09:06 | 42.89678 | 37.53208 | 39224 ft | 458 kts | 65° |
| 2026-05-08 09:06 | 42.92107 | 37.61246 | 39228 ft | 458 kts | 65° |
| 2026-05-08 09:07 | 42.94531 | 37.69297 | 39228 ft | 459 kts | 65° |
| 2026-05-08 09:07 | 42.96950 | 37.77350 | 39228 ft | 459 kts | 65° |
| 2026-05-08 09:08 | 42.99346 | 37.85419 | 39231 ft | 459 kts | 66° |
| 2026-05-08 09:08 | 43.01737 | 37.93501 | 39232 ft | 458 kts | 65° |
| 2026-05-08 09:09 | 43.03242 | 37.97307 | 39216 ft | 453 kts | 50° |
| 2026-05-08 09:09 | 43.05415 | 38.00374 | 39235 ft | 448 kts | 36° |
| 2026-05-08 09:09 | 43.10488 | 38.05379 | 39225 ft | 450 kts | 33° |
| 2026-05-08 09:10 | 43.15645 | 38.10252 | 39234 ft | 451 kts | 33° |
| 2026-05-08 09:10 | 43.20833 | 38.15086 | 39231 ft | 451 kts | 33° |
| 2026-05-08 09:11 | 43.26019 | 38.19919 | 39227 ft | 451 kts | 33° |
| 2026-05-08 09:11 | 43.31208 | 38.24763 | 39230 ft | 451 kts | 33° |
| 2026-05-08 09:12 | 43.36388 | 38.29614 | 39231 ft | 451 kts | 33° |
| 2026-05-08 09:12 | 43.41542 | 38.34518 | 39230 ft | 451 kts | 33° |
| 2026-05-08 09:13 | 43.46665 | 38.39397 | 39230 ft | 451 kts | 33° |
| 2026-05-08 09:13 | 43.51820 | 38.44316 | 39231 ft | 451 kts | 33° |
| 2026-05-08 09:14 | 43.56974 | 38.49245 | 39227 ft | 451 kts | 33° |
| 2026-05-08 09:14 | 43.62174 | 38.54086 | 39228 ft | 451 kts | 33° |
| 2026-05-08 09:15 | 43.67381 | 38.58923 | 39228 ft | 451 kts | 33° |
| 2026-05-08 09:15 | 43.72590 | 38.63776 | 39227 ft | 451 kts | 33° |
| 2026-05-08 09:16 | 43.77818 | 38.68657 | 37893 ft | 458 kts | 33° |
| 2026-05-08 09:16 | 43.80427 | 38.71097 | 37324 ft | 453 kts | 33° |
| 2026-05-08 09:16 | 43.83021 | 38.73526 | 37410 ft | 448 kts | 33° |
| 2026-05-08 09:17 | 43.88150 | 38.78336 | 36995 ft | 444 kts | 33° |
| 2026-05-08 09:17 | 43.90696 | 38.80725 | 36504 ft | 440 kts | 33° |
| 2026-05-08 09:17 | 43.93223 | 38.83101 | 36026 ft | 438 kts | 33° |
| 2026-05-08 09:18 | 43.95740 | 38.85469 | 35553 ft | 436 kts | 33° |
| 2026-05-08 09:18 | 43.98240 | 38.87823 | 35103 ft | 434 kts | 33° |
| 2026-05-08 09:18 | 44.00730 | 38.90169 | 34648 ft | 431 kts | 33° |
| 2026-05-08 09:18 | 44.03208 | 38.92508 | 34202 ft | 429 kts | 33° |
| 2026-05-08 09:19 | 44.05673 | 38.94836 | 33690 ft | 428 kts | 33° |
| 2026-05-08 09:19 | 44.08134 | 38.97163 | 33173 ft | 428 kts | 33° |
| 2026-05-08 09:19 | 44.10629 | 38.99427 | 32664 ft | 428 kts | 26° |
| 2026-05-08 09:19 | 44.13398 | 39.00890 | 32153 ft | 426 kts | 12° |
| 2026-05-08 09:20 | 44.16341 | 39.01243 | 31657 ft | 427 kts | 357° |
| 2026-05-08 09:20 | 44.19295 | 39.00671 | 31091 ft | 431 kts | 351° |
| 2026-05-08 09:20 | 44.22234 | 38.99890 | 30191 ft | 430 kts | 349° |
| 2026-05-08 09:20 | 44.25165 | 38.99033 | 29108 ft | 432 kts | 349° |
| 2026-05-08 09:21 | 44.28101 | 38.98137 | 28067 ft | 432 kts | 348° |
| 2026-05-08 09:21 | 44.31050 | 38.97213 | 27044 ft | 437 kts | 348° |
| 2026-05-08 09:22 | 44.48899 | 38.90701 | 21134 ft | 437 kts | 346° |
| 2026-05-08 09:23 | 44.51825 | 38.89621 | 20149 ft | 433 kts | 346° |
| 2026-05-08 09:23 | 44.54720 | 38.88552 | 19218 ft | 428 kts | 346° |
| 2026-05-08 09:23 | 44.57583 | 38.87493 | 18266 ft | 424 kts | 346° |
| 2026-05-08 09:23 | 44.60428 | 38.86440 | 17224 ft | 419 kts | 346° |
| 2026-05-08 09:24 | 44.63237 | 38.85399 | 16204 ft | 414 kts | 346° |
| 2026-05-08 09:24 | 44.66013 | 38.84369 | 15234 ft | 410 kts | 346° |
| 2026-05-08 09:24 | 44.68756 | 38.83351 | 14262 ft | 406 kts | 346° |
| 2026-05-08 09:24 | 44.71442 | 38.82352 | 13266 ft | 402 kts | 346° |
| 2026-05-08 09:25 | 44.74138 | 38.81393 | 12226 ft | 395 kts | 351° |
| 2026-05-08 09:25 | 44.76838 | 38.81419 | 11198 ft | 385 kts | 14° |
| 2026-05-08 09:25 | 44.79220 | 38.83029 | 10913 ft | 381 kts | 40° |
| 2026-05-08 09:25 | 44.81086 | 38.85583 | 11649 ft | 362 kts | 46° |
| 2026-05-08 09:26 | 44.82738 | 38.87937 | 12075 ft | 319 kts | 46° |
| 2026-05-08 09:26 | 44.83750 | 38.89393 | 12213 ft | 297 kts | 47° |
| 2026-05-08 09:26 | 44.85127 | 38.91394 | 12215 ft | 283 kts | 47° |
| 2026-05-08 09:26 | 44.86484 | 38.93377 | 12221 ft | 279 kts | 47° |
| 2026-05-08 09:27 | 44.87796 | 38.95389 | 12139 ft | 279 kts | 55° |
| 2026-05-08 09:27 | 44.88643 | 38.97834 | 11842 ft | 278 kts | 69° |
| 2026-05-08 09:27 | 44.89366 | 39.00359 | 11531 ft | 278 kts | 68° |
| 2026-05-08 09:27 | 44.90089 | 39.02886 | 11231 ft | 276 kts | 68° |
| 2026-05-08 09:28 | 44.90798 | 39.05391 | 10923 ft | 274 kts | 69° |
| 2026-05-08 09:28 | 44.91500 | 39.07882 | 10614 ft | 271 kts | 69° |
| 2026-05-08 09:28 | 44.92189 | 39.10339 | 10320 ft | 268 kts | 69° |
| 2026-05-08 09:28 | 44.92870 | 39.12771 | 10035 ft | 265 kts | 69° |
| 2026-05-08 09:29 | 44.93545 | 39.15184 | 9717 ft | 264 kts | 69° |
| 2026-05-08 09:29 | 44.94220 | 39.17601 | 9413 ft | 265 kts | 69° |
| 2026-05-08 09:29 | 44.94889 | 39.19998 | 9122 ft | 266 kts | 69° |
| 2026-05-08 09:29 | 44.95566 | 39.22427 | 8827 ft | 266 kts | 69° |
| 2026-05-08 09:30 | 44.96242 | 39.24855 | 8534 ft | 265 kts | 69° |
| 2026-05-08 09:30 | 44.96915 | 39.27275 | 8249 ft | 265 kts | 69° |
| 2026-05-08 09:30 | 44.97588 | 39.29696 | 7964 ft | 264 kts | 69° |
| 2026-05-08 09:30 | 44.98259 | 39.32104 | 7668 ft | 263 kts | 67° |
| 2026-05-08 09:31 | 44.99212 | 39.34283 | 7390 ft | 260 kts | 53° |
| 2026-05-08 09:31 | 45.00313 | 39.36301 | 7105 ft | 271 kts | 52° |
| 2026-05-08 09:31 | 45.01609 | 39.38694 | 6759 ft | 333 kts | 53° |
| 2026-05-08 09:31 | 45.03001 | 39.41270 | 6377 ft | 325 kts | 53° |
| 2026-05-08 09:32 | 45.04352 | 39.43774 | 6022 ft | 319 kts | 53° |
| 2026-05-08 09:32 | 45.05892 | 39.46411 | 5588 ft | 382 kts | 43° |
| 2026-05-08 09:32 | 45.08149 | 39.48383 | 5587 ft | 371 kts | 19° |
| 2026-05-08 09:32 | 45.10550 | 39.48696 | 5625 ft | 331 kts | 351° |
| 2026-05-08 09:33 | 45.12505 | 39.47429 | 5647 ft | 296 kts | 321° |
| 2026-05-08 09:33 | 45.13699 | 39.45239 | 5514 ft | 273 kts | 295° |
| 2026-05-08 09:33 | 45.14180 | 39.42690 | 4949 ft | 268 kts | 276° |
| 2026-05-08 09:33 | 45.14057 | 39.40052 | 4190 ft | 270 kts | 256° |
| 2026-05-08 09:34 | 45.13303 | 39.37676 | 3453 ft | 263 kts | 238° |
| 2026-05-08 09:34 | 45.12293 | 39.35565 | 2692 ft | 255 kts | 236° |
| 2026-05-08 09:34 | 45.11310 | 39.33547 | 2227 ft | 239 kts | 238° |
| 2026-05-08 09:34 | 45.10426 | 39.31728 | 1961 ft | 210 kts | 235° |
| 2026-05-08 09:35 | 45.09590 | 39.30187 | 1703 ft | 182 kts | 233° |
| 2026-05-08 09:35 | 45.08880 | 39.28894 | 1530 ft | 157 kts | 235° |
| 2026-05-08 09:35 | 45.08219 | 39.27660 | 1328 ft | 156 kts | 234° |
| 2026-05-08 09:35 | 45.07555 | 39.26432 | 1096 ft | 157 kts | 234° |
| 2026-05-08 09:36 | 45.06900 | 39.25225 | 912 ft | 153 kts | 233° |
| 2026-05-08 09:36 | 45.06259 | 39.24035 | 680 ft | 151 kts | 231° |
| 2026-05-08 09:36 | 45.05629 | 39.22871 | 533 ft | 152 kts | 232° |
| 2026-05-08 09:36 | 45.04978 | 39.21678 | 356 ft | 153 kts | 231° |
| 2026-05-08 09:37 | 45.04324 | 39.20492 | 186 ft | 153 kts | 233° |
| 2026-05-08 09:37 | 45.03716 | 39.19334 | 118 ft | 133 kts | 233° |
| 2026-05-08 09:37 | 45.03333 | 39.18618 | 118 ft | 37 kts | 252° |
| 2026-05-08 09:37 | 45.03323 | 39.18580 | 116 ft | 4 kts | 252° |
| 2026-05-08 09:38 | 45.03307 | 39.18500 | 112 ft | 12 kts | 255° |
| 2026-05-08 09:38 | 45.03294 | 39.18340 | 108 ft | 20 kts | 264° |
| 2026-05-08 09:38 | 45.03257 | 39.18129 | 108 ft | 24 kts | 235° |
| 2026-05-08 09:38 | 45.03151 | 39.17930 | 110 ft | 27 kts | 232° |
| 2026-05-08 09:39 | 45.02967 | 39.17593 | 110 ft | 61 kts | 232° |
| 2026-05-08 09:39 | 45.02813 | 39.17295 | 109 ft | 20 kts | 254° |
| 2026-05-08 09:39 | 45.02882 | 39.17155 | 109 ft | 19 kts | 324° |
| 2026-05-08 09:39 | 45.02996 | 39.17031 | 109 ft | 23 kts | 322° |
| 2026-05-08 09:40 | 45.03129 | 39.16887 | 109 ft | 26 kts | 322° |
| 2026-05-08 09:40 | 45.03279 | 39.16726 | 109 ft | 28 kts | 323° |
| 2026-05-08 09:40 | 45.03443 | 39.16549 | 109 ft | 31 kts | 322° |
| 2026-05-08 09:40 | 45.03620 | 39.16354 | 109 ft | 33 kts | 323° |
| 2026-05-08 09:41 | 45.03804 | 39.16136 | 109 ft | 35 kts | 304° |
| 2026-05-08 09:41 | 45.03852 | 39.15863 | 109 ft | 22 kts | 278° |
| 2026-05-08 09:41 | 45.03839 | 39.15625 | 109 ft | 24 kts | 239° |
| 2026-05-08 09:41 | 45.03794 | 39.15394 | 109 ft | 27 kts | 289° |
| 2026-05-08 09:42 | 45.03811 | 39.15146 | 109 ft | 26 kts | 239° |
| 2026-05-08 09:42 | 45.03717 | 39.14910 | 109 ft | 29 kts | 241° |
| 2026-05-08 09:42 | 45.03614 | 39.14650 | 109 ft | 32 kts | 241° |
| 2026-05-08 09:42 | 45.03512 | 39.14404 | 109 ft | 0 kts | 240° |
| 2026-05-08 09:43 | 45.03511 | 39.14403 | 109 ft | 1 kts | 241° |
| 2026-05-08 09:43 | 45.03500 | 39.14371 | 109 ft | 7 kts | 244° |
| 2026-05-08 09:43 | 45.03505 | 39.14298 | 109 ft | 9 kts | 312° |
| 2026-05-08 09:44 | 45.03525 | 39.14278 | 109 ft | 4 kts | 328° |
| 2026-05-08 09:44 | 45.03527 | 39.14276 | 109 ft | 0 kts | 328° |